sensor_id;sensor_type;location;lat;lon;timestamp;P1;durP1;ratioP1;P2;durP2;ratioP2
56581;SDS011;42463;52.214;21.238;2023-04-24T00:01:38;11.30;;;8.60;;
56581;SDS011;42463;52.214;21.238;2023-04-24T00:04:15;11.10;;;8.60;;
56581;SDS011;42463;52.214;21.238;2023-04-24T00:06:56;9.70;;;8.40;;
56581;SDS011;42463;52.214;21.238;2023-04-24T00:09:35;12.40;;;9.20;;
56581;SDS011;42463;52.214;21.238;2023-04-24T00:12:12;12.70;;;9.20;;
56581;SDS011;42463;52.214;21.238;2023-04-24T00:14:48;13.00;;;9.70;;
56581;SDS011;42463;52.214;21.238;2023-04-24T00:17:26;13.40;;;8.60;;
56581;SDS011;42463;52.214;21.238;2023-04-24T00:23:15;12.30;;;8.50;;
56581;SDS011;42463;52.214;21.238;2023-04-24T00:25:55;13.00;;;8.70;;
56581;SDS011;42463;52.214;21.238;2023-04-24T00:28:31;11.70;;;9.40;;
56581;SDS011;42463;52.214;21.238;2023-04-24T00:31:16;11.90;;;8.50;;
56581;SDS011;42463;52.214;21.238;2023-04-24T00:33:56;11.90;;;9.10;;
56581;SDS011;42463;52.214;21.238;2023-04-24T00:36:37;10.90;;;8.60;;
56581;SDS011;42463;52.214;21.238;2023-04-24T00:39:17;11.50;;;9.00;;
56581;SDS011;42463;52.214;21.238;2023-04-24T00:41:56;12.10;;;8.90;;
56581;SDS011;42463;52.214;21.238;2023-04-24T00:44:29;10.50;;;8.80;;
56581;SDS011;42463;52.214;21.238;2023-04-24T00:47:09;11.80;;;9.40;;
56581;SDS011;42463;52.214;21.238;2023-04-24T00:49:49;12.10;;;9.10;;
56581;SDS011;42463;52.214;21.238;2023-04-24T00:52:29;12.30;;;8.80;;
56581;SDS011;42463;52.214;21.238;2023-04-24T00:55:06;14.40;;;9.40;;
56581;SDS011;42463;52.214;21.238;2023-04-24T01:27:28;12.40;;;9.50;;
56581;SDS011;42463;52.214;21.238;2023-04-24T01:30:03;12.70;;;9.90;;
56581;SDS011;42463;52.214;21.238;2023-04-24T01:32:37;12.10;;;9.60;;
56581;SDS011;42463;52.214;21.238;2023-04-24T01:35:10;14.70;;;10.00;;
56581;SDS011;42463;52.214;21.238;2023-04-24T01:37:57;15.10;;;9.10;;
56581;SDS011;42463;52.214;21.238;2023-04-24T01:40:32;13.50;;;9.30;;
56581;SDS011;42463;52.214;21.238;2023-04-24T01:43:04;15.00;;;9.40;;
56581;SDS011;42463;52.214;21.238;2023-04-24T01:45:38;17.70;;;9.60;;
56581;SDS011;42463;52.214;21.238;2023-04-24T01:48:15;11.90;;;9.60;;
56581;SDS011;42463;52.214;21.238;2023-04-24T01:50:51;13.00;;;9.70;;
56581;SDS011;42463;52.214;21.238;2023-04-24T01:53:35;11.00;;;9.30;;
56581;SDS011;42463;52.214;21.238;2023-04-24T01:56:08;14.50;;;10.00;;
56581;SDS011;42463;52.214;21.238;2023-04-24T01:58:42;12.90;;;9.70;;
56581;SDS011;42463;52.214;21.238;2023-04-24T02:01:17;12.00;;;9.50;;
56581;SDS011;42463;52.214;21.238;2023-04-24T02:04:01;14.10;;;10.00;;
56581;SDS011;42463;52.214;21.238;2023-04-24T02:06:33;12.40;;;9.20;;
56581;SDS011;42463;52.214;21.238;2023-04-24T02:09:09;12.90;;;9.90;;
56581;SDS011;42463;52.214;21.238;2023-04-24T02:11:44;15.00;;;10.10;;
56581;SDS011;42463;52.214;21.238;2023-04-24T02:14:15;14.20;;;10.00;;
56581;SDS011;42463;52.214;21.238;2023-04-24T02:16:50;14.30;;;10.10;;
56581;SDS011;42463;52.214;21.238;2023-04-24T02:19:25;12.00;;;9.80;;
56581;SDS011;42463;52.214;21.238;2023-04-24T02:22:00;14.60;;;10.10;;
56581;SDS011;42463;52.214;21.238;2023-04-24T02:24:29;16.30;;;10.20;;
56581;SDS011;42463;52.214;21.238;2023-04-24T02:27:04;14.10;;;10.00;;
56581;SDS011;42463;52.214;21.238;2023-04-24T02:29:42;13.10;;;9.80;;
56581;SDS011;42463;52.214;21.238;2023-04-24T02:32:17;13.90;;;10.00;;
56581;SDS011;42463;52.214;21.238;2023-04-24T02:34:50;12.50;;;9.40;;
56581;SDS011;42463;52.214;21.238;2023-04-24T02:37:26;13.60;;;10.30;;
56581;SDS011;42463;52.214;21.238;2023-04-24T02:42:57;11.80;;;10.00;;
56581;SDS011;42463;52.214;21.238;2023-04-24T02:45:30;14.40;;;10.80;;
56581;SDS011;42463;52.214;21.238;2023-04-24T02:48:05;12.80;;;10.00;;
56581;SDS011;42463;52.214;21.238;2023-04-24T02:50:49;14.40;;;10.40;;
56581;SDS011;42463;52.214;21.238;2023-04-24T02:53:23;13.30;;;10.00;;
56581;SDS011;42463;52.214;21.238;2023-04-24T02:56:00;14.80;;;10.40;;
56581;SDS011;42463;52.214;21.238;2023-04-24T02:58:42;13.20;;;10.70;;
56581;SDS011;42463;52.214;21.238;2023-04-24T03:01:21;14.00;;;9.80;;
56581;SDS011;42463;52.214;21.238;2023-04-24T03:03:58;11.40;;;9.50;;
56581;SDS011;42463;52.214;21.238;2023-04-24T03:06:33;15.80;;;9.90;;
56581;SDS011;42463;52.214;21.238;2023-04-24T03:09:06;14.00;;;11.10;;
56581;SDS011;42463;52.214;21.238;2023-04-24T03:14:07;14.20;;;10.90;;
56581;SDS011;42463;52.214;21.238;2023-04-24T03:16:42;17.30;;;10.70;;
56581;SDS011;42463;52.214;21.238;2023-04-24T03:19:18;13.80;;;9.90;;
56581;SDS011;42463;52.214;21.238;2023-04-24T03:21:52;13.30;;;10.40;;
56581;SDS011;42463;52.214;21.238;2023-04-24T03:24:27;14.20;;;10.20;;
56581;SDS011;42463;52.214;21.238;2023-04-24T03:27:03;14.00;;;10.20;;
56581;SDS011;42463;52.214;21.238;2023-04-24T03:29:54;14.30;;;10.50;;
56581;SDS011;42463;52.214;21.238;2023-04-24T03:32:31;15.90;;;10.80;;
56581;SDS011;42463;52.214;21.238;2023-04-24T03:35:07;15.60;;;11.00;;
56581;SDS011;42463;52.214;21.238;2023-04-24T03:37:46;12.70;;;9.80;;
56581;SDS011;42463;52.214;21.238;2023-04-24T03:40:43;15.30;;;11.00;;
56581;SDS011;42463;52.214;21.238;2023-04-24T03:43:24;13.30;;;10.80;;
56581;SDS011;42463;52.214;21.238;2023-04-24T03:45:59;15.10;;;11.10;;
56581;SDS011;42463;52.214;21.238;2023-04-24T03:48:36;16.90;;;10.60;;
56581;SDS011;42463;52.214;21.238;2023-04-24T03:51:07;14.30;;;10.40;;
56581;SDS011;42463;52.214;21.238;2023-04-24T03:53:39;15.90;;;10.20;;
56581;SDS011;42463;52.214;21.238;2023-04-24T03:56:14;14.40;;;10.20;;
56581;SDS011;42463;52.214;21.238;2023-04-24T03:58:50;13.80;;;10.20;;
56581;SDS011;42463;52.214;21.238;2023-04-24T04:01:24;14.20;;;10.70;;
56581;SDS011;42463;52.214;21.238;2023-04-24T04:03:59;14.00;;;10.20;;
56581;SDS011;42463;52.214;21.238;2023-04-24T04:06:35;13.60;;;10.40;;
56581;SDS011;42463;52.214;21.238;2023-04-24T04:09:09;13.60;;;10.60;;
56581;SDS011;42463;52.214;21.238;2023-04-24T04:11:43;15.20;;;11.00;;
56581;SDS011;42463;52.214;21.238;2023-04-24T04:14:19;17.60;;;11.20;;
56581;SDS011;42463;52.214;21.238;2023-04-24T04:16:53;15.90;;;10.60;;
56581;SDS011;42463;52.214;21.238;2023-04-24T04:19:27;16.90;;;10.00;;
56581;SDS011;42463;52.214;21.238;2023-04-24T04:21:59;15.40;;;10.20;;
56581;SDS011;42463;52.214;21.238;2023-04-24T04:24:38;14.80;;;10.40;;
56581;SDS011;42463;52.214;21.238;2023-04-24T04:27:13;13.40;;;10.40;;
56581;SDS011;42463;52.214;21.238;2023-04-24T04:30:02;14.50;;;10.40;;
56581;SDS011;42463;52.214;21.238;2023-04-24T04:32:46;14.20;;;10.50;;
56581;SDS011;42463;52.214;21.238;2023-04-24T04:35:18;13.30;;;10.20;;
56581;SDS011;42463;52.214;21.238;2023-04-24T04:38:00;13.50;;;9.60;;
56581;SDS011;42463;52.214;21.238;2023-04-24T04:40:38;15.80;;;10.60;;
56581;SDS011;42463;52.214;21.238;2023-04-24T04:43:11;17.10;;;10.40;;
56581;SDS011;42463;52.214;21.238;2023-04-24T04:45:43;13.90;;;10.20;;
56581;SDS011;42463;52.214;21.238;2023-04-24T04:48:35;13.50;;;10.50;;
56581;SDS011;42463;52.214;21.238;2023-04-24T04:51:08;17.30;;;10.00;;
56581;SDS011;42463;52.214;21.238;2023-04-24T04:53:41;15.20;;;9.80;;
56581;SDS011;42463;52.214;21.238;2023-04-24T04:56:15;14.70;;;10.60;;
56581;SDS011;42463;52.214;21.238;2023-04-24T04:58:47;12.70;;;9.80;;
56581;SDS011;42463;52.214;21.238;2023-04-24T05:01:22;15.30;;;10.40;;
56581;SDS011;42463;52.214;21.238;2023-04-24T05:07:49;12.20;;;9.90;;
56581;SDS011;42463;52.214;21.238;2023-04-24T05:10:30;12.20;;;10.20;;
56581;SDS011;42463;52.214;21.238;2023-04-24T05:13:05;14.20;;;10.70;;
56581;SDS011;42463;52.214;21.238;2023-04-24T05:15:41;16.20;;;10.20;;
56581;SDS011;42463;52.214;21.238;2023-04-24T05:18:18;14.00;;;10.10;;
56581;SDS011;42463;52.214;21.238;2023-04-24T05:20:51;15.40;;;10.30;;
56581;SDS011;42463;52.214;21.238;2023-04-24T05:28:42;13.30;;;10.30;;
56581;SDS011;42463;52.214;21.238;2023-04-24T05:31:16;14.60;;;10.80;;
56581;SDS011;42463;52.214;21.238;2023-04-24T05:33:49;14.00;;;10.70;;
56581;SDS011;42463;52.214;21.238;2023-04-24T05:36:21;15.50;;;11.20;;
56581;SDS011;42463;52.214;21.238;2023-04-24T05:38:54;12.60;;;9.80;;
56581;SDS011;42463;52.214;21.238;2023-04-24T05:44:37;13.10;;;9.90;;
56581;SDS011;42463;52.214;21.238;2023-04-24T05:47:18;15.00;;;11.40;;
56581;SDS011;42463;52.214;21.238;2023-04-24T05:50:05;16.00;;;10.30;;
56581;SDS011;42463;52.214;21.238;2023-04-24T05:52:38;15.00;;;10.40;;
56581;SDS011;42463;52.214;21.238;2023-04-24T05:55:15;15.00;;;9.50;;
56581;SDS011;42463;52.214;21.238;2023-04-24T05:57:53;13.10;;;10.10;;
56581;SDS011;42463;52.214;21.238;2023-04-24T06:00:34;13.70;;;9.90;;
56581;SDS011;42463;52.214;21.238;2023-04-24T06:03:06;14.70;;;10.30;;
56581;SDS011;42463;52.214;21.238;2023-04-24T06:05:40;11.80;;;9.20;;
56581;SDS011;42463;52.214;21.238;2023-04-24T06:08:17;15.20;;;9.70;;
56581;SDS011;42463;52.214;21.238;2023-04-24T06:14:24;12.90;;;8.90;;
56581;SDS011;42463;52.214;21.238;2023-04-24T06:24:35;11.70;;;9.60;;
56581;SDS011;42463;52.214;21.238;2023-04-24T06:26:38;11.70;;;9.90;;
56581;SDS011;42463;52.214;21.238;2023-04-24T06:28:42;15.60;;;9.50;;
56581;SDS011;42463;52.214;21.238;2023-04-24T06:30:45;13.70;;;10.10;;
56581;SDS011;42463;52.214;21.238;2023-04-24T06:32:48;10.90;;;9.40;;
56581;SDS011;42463;52.214;21.238;2023-04-24T06:34:53;13.90;;;9.00;;
56581;SDS011;42463;52.214;21.238;2023-04-24T06:36:56;12.50;;;9.70;;
56581;SDS011;42463;52.214;21.238;2023-04-24T06:38:59;13.30;;;8.80;;
56581;SDS011;42463;52.214;21.238;2023-04-24T06:41:02;13.10;;;9.90;;
56581;SDS011;42463;52.214;21.238;2023-04-24T06:43:06;14.70;;;9.80;;
56581;SDS011;42463;52.214;21.238;2023-04-24T06:45:10;11.70;;;9.30;;
56581;SDS011;42463;52.214;21.238;2023-04-24T06:47:13;15.40;;;9.60;;
56581;SDS011;42463;52.214;21.238;2023-04-24T06:49:16;12.30;;;8.90;;
56581;SDS011;42463;52.214;21.238;2023-04-24T06:51:19;14.20;;;10.20;;
56581;SDS011;42463;52.214;21.238;2023-04-24T06:53:22;12.50;;;9.90;;
56581;SDS011;42463;52.214;21.238;2023-04-24T06:55:26;14.30;;;9.80;;
56581;SDS011;42463;52.214;21.238;2023-04-24T06:57:29;12.40;;;10.20;;
56581;SDS011;42463;52.214;21.238;2023-04-24T07:01:35;14.00;;;9.20;;
56581;SDS011;42463;52.214;21.238;2023-04-24T07:03:38;15.60;;;10.20;;
56581;SDS011;42463;52.214;21.238;2023-04-24T07:05:41;14.40;;;9.90;;
56581;SDS011;42463;52.214;21.238;2023-04-24T07:07:46;17.10;;;9.90;;
56581;SDS011;42463;52.214;21.238;2023-04-24T07:09:50;13.20;;;9.80;;
56581;SDS011;42463;52.214;21.238;2023-04-24T07:11:53;15.60;;;9.90;;
56581;SDS011;42463;52.214;21.238;2023-04-24T07:13:58;15.90;;;9.20;;
56581;SDS011;42463;52.214;21.238;2023-04-24T07:16:01;13.00;;;9.80;;
56581;SDS011;42463;52.214;21.238;2023-04-24T07:18:04;15.60;;;9.70;;
56581;SDS011;42463;52.214;21.238;2023-04-24T07:20:08;15.40;;;10.00;;
56581;SDS011;42463;52.214;21.238;2023-04-24T07:22:13;12.90;;;9.50;;
56581;SDS011;42463;52.214;21.238;2023-04-24T07:24:18;11.80;;;9.90;;
56581;SDS011;42463;52.214;21.238;2023-04-24T07:26:21;12.90;;;9.10;;
56581;SDS011;42463;52.214;21.238;2023-04-24T07:28:24;15.20;;;9.20;;
56581;SDS011;42463;52.214;21.238;2023-04-24T07:30:27;14.20;;;9.30;;
56581;SDS011;42463;52.214;21.238;2023-04-24T07:34:32;12.80;;;8.70;;
56581;SDS011;42463;52.214;21.238;2023-04-24T07:38:39;11.90;;;8.30;;
56581;SDS011;42463;52.214;21.238;2023-04-24T07:40:42;13.70;;;8.80;;
56581;SDS011;42463;52.214;21.238;2023-04-24T07:42:45;10.60;;;8.30;;
56581;SDS011;42463;52.214;21.238;2023-04-24T07:44:49;12.10;;;9.20;;
56581;SDS011;42463;52.214;21.238;2023-04-24T07:46:52;15.40;;;9.00;;
56581;SDS011;42463;52.214;21.238;2023-04-24T07:48:55;13.40;;;8.70;;
56581;SDS011;42463;52.214;21.238;2023-04-24T07:50:58;14.90;;;8.50;;
56581;SDS011;42463;52.214;21.238;2023-04-24T07:53:01;12.90;;;8.60;;
56581;SDS011;42463;52.214;21.238;2023-04-24T07:55:05;9.90;;;8.50;;
56581;SDS011;42463;52.214;21.238;2023-04-24T07:57:08;10.70;;;9.00;;
56581;SDS011;42463;52.214;21.238;2023-04-24T08:01:14;12.90;;;8.30;;
56581;SDS011;42463;52.214;21.238;2023-04-24T08:03:17;11.40;;;8.50;;
56581;SDS011;42463;52.214;21.238;2023-04-24T08:05:21;11.70;;;8.70;;
56581;SDS011;42463;52.214;21.238;2023-04-24T08:07:24;14.50;;;8.60;;
56581;SDS011;42463;52.214;21.238;2023-04-24T08:09:27;11.10;;;8.40;;
56581;SDS011;42463;52.214;21.238;2023-04-24T08:11:29;13.70;;;8.60;;
56581;SDS011;42463;52.214;21.238;2023-04-24T08:13:33;13.40;;;8.20;;
56581;SDS011;42463;52.214;21.238;2023-04-24T08:15:36;10.50;;;7.90;;
56581;SDS011;42463;52.214;21.238;2023-04-24T08:17:38;11.40;;;9.00;;
56581;SDS011;42463;52.214;21.238;2023-04-24T08:19:42;10.10;;;7.90;;
56581;SDS011;42463;52.214;21.238;2023-04-24T08:21:49;10.90;;;7.70;;
56581;SDS011;42463;52.214;21.238;2023-04-24T08:23:52;9.00;;;8.10;;
56581;SDS011;42463;52.214;21.238;2023-04-24T08:25:54;13.70;;;8.20;;
56581;SDS011;42463;52.214;21.238;2023-04-24T08:27:58;8.20;;;7.40;;
56581;SDS011;42463;52.214;21.238;2023-04-24T08:30:01;9.20;;;8.10;;
56581;SDS011;42463;52.214;21.238;2023-04-24T08:32:05;14.10;;;8.20;;
56581;SDS011;42463;52.214;21.238;2023-04-24T08:34:09;10.80;;;7.90;;
56581;SDS011;42463;52.214;21.238;2023-04-24T08:36:12;9.20;;;7.70;;
56581;SDS011;42463;52.214;21.238;2023-04-24T08:38:15;9.80;;;7.60;;
56581;SDS011;42463;52.214;21.238;2023-04-24T08:40:18;10.80;;;7.70;;
56581;SDS011;42463;52.214;21.238;2023-04-24T08:42:24;10.70;;;7.80;;
56581;SDS011;42463;52.214;21.238;2023-04-24T08:44:30;10.00;;;7.90;;
56581;SDS011;42463;52.214;21.238;2023-04-24T08:46:33;13.60;;;8.00;;
56581;SDS011;42463;52.214;21.238;2023-04-24T08:48:37;11.70;;;7.10;;
56581;SDS011;42463;52.214;21.238;2023-04-24T08:50:41;10.80;;;8.10;;
56581;SDS011;42463;52.214;21.238;2023-04-24T08:52:46;11.50;;;7.70;;
56581;SDS011;42463;52.214;21.238;2023-04-24T08:54:51;10.00;;;7.80;;
56581;SDS011;42463;52.214;21.238;2023-04-24T08:56:57;8.90;;;7.80;;
56581;SDS011;42463;52.214;21.238;2023-04-24T08:59:03;9.40;;;8.20;;
56581;SDS011;42463;52.214;21.238;2023-04-24T09:01:06;8.80;;;7.80;;
56581;SDS011;42463;52.214;21.238;2023-04-24T09:03:09;11.00;;;8.00;;
56581;SDS011;42463;52.214;21.238;2023-04-24T09:07:16;10.00;;;7.70;;
56581;SDS011;42463;52.214;21.238;2023-04-24T09:09:21;10.00;;;7.90;;
56581;SDS011;42463;52.214;21.238;2023-04-24T09:11:25;9.60;;;7.40;;
56581;SDS011;42463;52.214;21.238;2023-04-24T09:13:29;10.90;;;8.50;;
56581;SDS011;42463;52.214;21.238;2023-04-24T09:15:34;8.60;;;7.70;;
56581;SDS011;42463;52.214;21.238;2023-04-24T09:17:37;12.60;;;9.10;;
56581;SDS011;42463;52.214;21.238;2023-04-24T09:19:41;10.40;;;8.60;;
56581;SDS011;42463;52.214;21.238;2023-04-24T09:21:45;14.70;;;8.80;;
56581;SDS011;42463;52.214;21.238;2023-04-24T09:23:53;11.80;;;8.70;;
56581;SDS011;42463;52.214;21.238;2023-04-24T09:26:01;11.60;;;8.40;;
56581;SDS011;42463;52.214;21.238;2023-04-24T09:28:06;10.50;;;8.90;;
56581;SDS011;42463;52.214;21.238;2023-04-24T09:30:10;11.60;;;8.70;;
56581;SDS011;42463;52.214;21.238;2023-04-24T09:32:21;10.90;;;9.00;;
56581;SDS011;42463;52.214;21.238;2023-04-24T09:34:26;9.70;;;8.00;;
56581;SDS011;42463;52.214;21.238;2023-04-24T09:36:31;11.10;;;8.80;;
56581;SDS011;42463;52.214;21.238;2023-04-24T09:38:35;11.80;;;9.20;;
56581;SDS011;42463;52.214;21.238;2023-04-24T09:40:40;10.40;;;8.90;;
56581;SDS011;42463;52.214;21.238;2023-04-24T09:42:43;12.20;;;8.60;;
56581;SDS011;42463;52.214;21.238;2023-04-24T09:44:47;10.10;;;8.70;;
56581;SDS011;42463;52.214;21.238;2023-04-24T09:46:54;10.50;;;8.80;;
56581;SDS011;42463;52.214;21.238;2023-04-24T09:48:57;9.50;;;8.00;;
56581;SDS011;42463;52.214;21.238;2023-04-24T09:51:09;11.30;;;8.60;;
56581;SDS011;42463;52.214;21.238;2023-04-24T09:53:12;10.40;;;8.90;;
56581;SDS011;42463;52.214;21.238;2023-04-24T09:55:19;10.80;;;8.50;;
56581;SDS011;42463;52.214;21.238;2023-04-24T09:57:23;10.50;;;7.90;;
56581;SDS011;42463;52.214;21.238;2023-04-24T09:59:26;10.10;;;8.20;;
56581;SDS011;42463;52.214;21.238;2023-04-24T10:03:33;9.10;;;8.20;;
56581;SDS011;42463;52.214;21.238;2023-04-24T10:05:37;11.10;;;8.90;;
56581;SDS011;42463;52.214;21.238;2023-04-24T10:07:40;11.20;;;8.50;;
56581;SDS011;42463;52.214;21.238;2023-04-24T10:09:46;9.30;;;8.40;;
56581;SDS011;42463;52.214;21.238;2023-04-24T10:11:49;10.00;;;9.00;;
56581;SDS011;42463;52.214;21.238;2023-04-24T10:13:53;9.60;;;8.60;;
56581;SDS011;42463;52.214;21.238;2023-04-24T10:15:57;11.40;;;9.30;;
56581;SDS011;42463;52.214;21.238;2023-04-24T10:18:02;10.20;;;8.90;;
56581;SDS011;42463;52.214;21.238;2023-04-24T10:20:08;11.10;;;8.80;;
56581;SDS011;42463;52.214;21.238;2023-04-24T10:22:12;11.50;;;8.80;;
56581;SDS011;42463;52.214;21.238;2023-04-24T10:24:17;10.30;;;8.60;;
56581;SDS011;42463;52.214;21.238;2023-04-24T10:26:22;11.60;;;8.70;;
56581;SDS011;42463;52.214;21.238;2023-04-24T10:28:25;12.10;;;8.60;;
56581;SDS011;42463;52.214;21.238;2023-04-24T10:30:30;9.60;;;7.50;;
56581;SDS011;42463;52.214;21.238;2023-04-24T10:32:36;13.50;;;8.40;;
56581;SDS011;42463;52.214;21.238;2023-04-24T10:34:39;10.60;;;8.40;;
56581;SDS011;42463;52.214;21.238;2023-04-24T10:38:47;10.40;;;8.60;;
56581;SDS011;42463;52.214;21.238;2023-04-24T10:40:51;10.80;;;7.70;;
56581;SDS011;42463;52.214;21.238;2023-04-24T10:42:59;11.60;;;8.50;;
56581;SDS011;42463;52.214;21.238;2023-04-24T10:45:05;9.80;;;8.70;;
56581;SDS011;42463;52.214;21.238;2023-04-24T10:47:17;8.90;;;7.30;;
56581;SDS011;42463;52.214;21.238;2023-04-24T10:49:27;16.00;;;9.00;;
56581;SDS011;42463;52.214;21.238;2023-04-24T10:51:44;10.50;;;7.80;;
56581;SDS011;42463;52.214;21.238;2023-04-24T10:53:48;9.80;;;7.90;;
56581;SDS011;42463;52.214;21.238;2023-04-24T10:55:56;8.70;;;7.80;;
56581;SDS011;42463;52.214;21.238;2023-04-24T10:58:03;9.40;;;8.20;;
56581;SDS011;42463;52.214;21.238;2023-04-24T11:00:12;11.10;;;7.70;;
56581;SDS011;42463;52.214;21.238;2023-04-24T11:02:17;9.90;;;8.60;;
56581;SDS011;42463;52.214;21.238;2023-04-24T11:04:37;10.60;;;8.20;;
56581;SDS011;42463;52.214;21.238;2023-04-24T11:06:39;10.00;;;8.50;;
56581;SDS011;42463;52.214;21.238;2023-04-24T11:08:45;9.20;;;7.60;;
56581;SDS011;42463;52.214;21.238;2023-04-24T11:10:55;11.60;;;8.50;;
56581;SDS011;42463;52.214;21.238;2023-04-24T11:13:02;9.30;;;8.30;;
56581;SDS011;42463;52.214;21.238;2023-04-24T11:15:06;10.60;;;7.70;;
56581;SDS011;42463;52.214;21.238;2023-04-24T11:17:26;9.60;;;7.50;;
56581;SDS011;42463;52.214;21.238;2023-04-24T11:19:31;9.10;;;8.10;;
56581;SDS011;42463;52.214;21.238;2023-04-24T11:21:42;9.60;;;8.00;;
56581;SDS011;42463;52.214;21.238;2023-04-24T11:23:46;9.20;;;7.70;;
56581;SDS011;42463;52.214;21.238;2023-04-24T11:28:14;11.20;;;7.50;;
56581;SDS011;42463;52.214;21.238;2023-04-24T11:30:18;9.80;;;7.60;;
56581;SDS011;42463;52.214;21.238;2023-04-24T11:32:26;9.10;;;7.10;;
56581;SDS011;42463;52.214;21.238;2023-04-24T11:34:29;11.20;;;6.80;;
56581;SDS011;42463;52.214;21.238;2023-04-24T11:36:35;12.10;;;8.60;;
56581;SDS011;42463;52.214;21.238;2023-04-24T11:38:38;8.40;;;6.80;;
56581;SDS011;42463;52.214;21.238;2023-04-24T11:40:42;9.00;;;6.70;;
56581;SDS011;42463;52.214;21.238;2023-04-24T11:42:47;8.20;;;7.10;;
56581;SDS011;42463;52.214;21.238;2023-04-24T11:44:53;8.30;;;7.00;;
56581;SDS011;42463;52.214;21.238;2023-04-24T11:46:59;7.90;;;7.10;;
56581;SDS011;42463;52.214;21.238;2023-04-24T11:49:01;9.30;;;7.00;;
56581;SDS011;42463;52.214;21.238;2023-04-24T11:51:04;8.40;;;6.50;;
56581;SDS011;42463;52.214;21.238;2023-04-24T11:53:08;8.10;;;6.50;;
56581;SDS011;42463;52.214;21.238;2023-04-24T11:55:23;7.40;;;6.60;;
56581;SDS011;42463;52.214;21.238;2023-04-24T11:57:28;7.40;;;6.50;;
56581;SDS011;42463;52.214;21.238;2023-04-24T11:59:37;8.70;;;6.60;;
56581;SDS011;42463;52.214;21.238;2023-04-24T12:01:44;7.80;;;6.60;;
56581;SDS011;42463;52.214;21.238;2023-04-24T12:03:47;6.20;;;5.50;;
56581;SDS011;42463;52.214;21.238;2023-04-24T12:05:52;6.80;;;4.90;;
56581;SDS011;42463;52.214;21.238;2023-04-24T12:08:06;7.20;;;5.40;;
56581;SDS011;42463;52.214;21.238;2023-04-24T12:12:12;10.00;;;5.90;;
56581;SDS011;42463;52.214;21.238;2023-04-24T12:14:17;7.20;;;5.80;;
56581;SDS011;42463;52.214;21.238;2023-04-24T12:16:19;9.60;;;5.90;;
56581;SDS011;42463;52.214;21.238;2023-04-24T12:20:28;6.50;;;5.90;;
56581;SDS011;42463;52.214;21.238;2023-04-24T12:22:44;8.00;;;6.20;;
56581;SDS011;42463;52.214;21.238;2023-04-24T12:25:01;7.80;;;5.70;;
56581;SDS011;42463;52.214;21.238;2023-04-24T12:27:05;8.50;;;6.00;;
56581;SDS011;42463;52.214;21.238;2023-04-24T12:29:08;6.90;;;5.30;;
56581;SDS011;42463;52.214;21.238;2023-04-24T12:31:11;8.60;;;5.40;;
56581;SDS011;42463;52.214;21.238;2023-04-24T12:33:16;6.60;;;5.30;;
56581;SDS011;42463;52.214;21.238;2023-04-24T12:35:21;7.40;;;5.50;;
56581;SDS011;42463;52.214;21.238;2023-04-24T12:37:26;6.70;;;5.70;;
56581;SDS011;42463;52.214;21.238;2023-04-24T12:39:34;7.30;;;5.90;;
56581;SDS011;42463;52.214;21.238;2023-04-24T12:41:37;14.60;;;6.70;;
56581;SDS011;42463;52.214;21.238;2023-04-24T12:43:51;12.60;;;7.40;;
56581;SDS011;42463;52.214;21.238;2023-04-24T12:45:54;7.00;;;5.60;;
56581;SDS011;42463;52.214;21.238;2023-04-24T12:47:58;7.50;;;6.80;;
56581;SDS011;42463;52.214;21.238;2023-04-24T12:50:01;7.50;;;5.60;;
56581;SDS011;42463;52.214;21.238;2023-04-24T12:52:04;7.00;;;6.00;;
56581;SDS011;42463;52.214;21.238;2023-04-24T12:54:07;6.50;;;5.40;;
56581;SDS011;42463;52.214;21.238;2023-04-24T12:56:10;6.10;;;5.50;;
56581;SDS011;42463;52.214;21.238;2023-04-24T12:58:13;6.60;;;5.60;;
56581;SDS011;42463;52.214;21.238;2023-04-24T13:00:16;7.40;;;5.60;;
56581;SDS011;42463;52.214;21.238;2023-04-24T13:02:20;8.10;;;5.30;;
56581;SDS011;42463;52.214;21.238;2023-04-24T13:04:23;9.90;;;5.10;;
56581;SDS011;42463;52.214;21.238;2023-04-24T13:06:26;5.90;;;4.90;;
56581;SDS011;42463;52.214;21.238;2023-04-24T13:10:31;6.40;;;5.00;;
56581;SDS011;42463;52.214;21.238;2023-04-24T13:12:34;6.50;;;4.90;;
56581;SDS011;42463;52.214;21.238;2023-04-24T13:14:38;7.50;;;5.30;;
56581;SDS011;42463;52.214;21.238;2023-04-24T13:18:43;8.70;;;4.90;;
56581;SDS011;42463;52.214;21.238;2023-04-24T13:20:45;7.00;;;5.20;;
56581;SDS011;42463;52.214;21.238;2023-04-24T13:22:49;8.10;;;5.70;;
56581;SDS011;42463;52.214;21.238;2023-04-24T13:24:52;10.00;;;5.20;;
56581;SDS011;42463;52.214;21.238;2023-04-24T13:26:54;6.20;;;5.20;;
56581;SDS011;42463;52.214;21.238;2023-04-24T13:28:58;6.90;;;5.20;;
56581;SDS011;42463;52.214;21.238;2023-04-24T13:31:01;9.50;;;5.30;;
56581;SDS011;42463;52.214;21.238;2023-04-24T13:33:04;6.40;;;5.00;;
56581;SDS011;42463;52.214;21.238;2023-04-24T13:35:08;7.70;;;5.90;;
56581;SDS011;42463;52.214;21.238;2023-04-24T13:37:11;8.90;;;5.20;;
56581;SDS011;42463;52.214;21.238;2023-04-24T13:39:14;13.50;;;6.10;;
56581;SDS011;42463;52.214;21.238;2023-04-24T13:41:18;8.40;;;5.60;;
56581;SDS011;42463;52.214;21.238;2023-04-24T13:43:21;7.10;;;5.50;;
56581;SDS011;42463;52.214;21.238;2023-04-24T13:45:24;6.10;;;5.10;;
56581;SDS011;42463;52.214;21.238;2023-04-24T13:49:29;7.90;;;5.70;;
56581;SDS011;42463;52.214;21.238;2023-04-24T13:51:32;6.60;;;5.50;;
56581;SDS011;42463;52.214;21.238;2023-04-24T13:55:39;7.90;;;5.20;;
56581;SDS011;42463;52.214;21.238;2023-04-24T13:57:42;6.70;;;6.10;;
56581;SDS011;42463;52.214;21.238;2023-04-24T13:59:45;4.80;;;4.30;;
56581;SDS011;42463;52.214;21.238;2023-04-24T14:01:49;4.60;;;4.20;;
56581;SDS011;42463;52.214;21.238;2023-04-24T14:03:52;9.40;;;4.30;;
56581;SDS011;42463;52.214;21.238;2023-04-24T14:05:55;5.70;;;4.70;;
56581;SDS011;42463;52.214;21.238;2023-04-24T14:07:58;4.90;;;4.40;;
56581;SDS011;42463;52.214;21.238;2023-04-24T14:10:01;6.20;;;3.90;;
56581;SDS011;42463;52.214;21.238;2023-04-24T14:12:05;4.20;;;3.70;;
56581;SDS011;42463;52.214;21.238;2023-04-24T14:14:08;3.80;;;3.50;;
56581;SDS011;42463;52.214;21.238;2023-04-24T14:16:11;4.90;;;3.50;;
56581;SDS011;42463;52.214;21.238;2023-04-24T14:18:14;3.80;;;3.50;;
56581;SDS011;42463;52.214;21.238;2023-04-24T14:20:17;5.20;;;3.70;;
56581;SDS011;42463;52.214;21.238;2023-04-24T14:22:21;4.10;;;3.60;;
56581;SDS011;42463;52.214;21.238;2023-04-24T14:24:24;4.70;;;4.10;;
56581;SDS011;42463;52.214;21.238;2023-04-24T14:26:26;4.40;;;3.70;;
56581;SDS011;42463;52.214;21.238;2023-04-24T14:30:31;4.00;;;3.60;;
56581;SDS011;42463;52.214;21.238;2023-04-24T14:32:34;5.10;;;4.00;;
56581;SDS011;42463;52.214;21.238;2023-04-24T14:34:37;6.60;;;4.30;;
56581;SDS011;42463;52.214;21.238;2023-04-24T14:38:43;4.80;;;4.30;;
56581;SDS011;42463;52.214;21.238;2023-04-24T14:40:46;7.00;;;4.20;;
56581;SDS011;42463;52.214;21.238;2023-04-24T14:42:49;8.70;;;5.10;;
56581;SDS011;42463;52.214;21.238;2023-04-24T14:46:54;6.60;;;4.50;;
56581;SDS011;42463;52.214;21.238;2023-04-24T14:50:59;6.10;;;5.20;;
56581;SDS011;42463;52.214;21.238;2023-04-24T14:53:02;6.20;;;4.80;;
56581;SDS011;42463;52.214;21.238;2023-04-24T14:55:06;7.10;;;4.90;;